sensor_id;sensor_type;location;lat;lon;timestamp;pressure;altitude;pressure_sealevel;temperature;humidity
9893;BME280;4985;49.092;8.542;2022-12-31T00:01:24;99005.50;;;13.95;55.72
9893;BME280;4985;49.092;8.542;2022-12-31T00:03:53;99003.88;;;13.94;55.71
9893;BME280;4985;49.092;8.542;2022-12-31T00:06:22;99013.44;;;13.95;55.71
9893;BME280;4985;49.092;8.542;2022-12-31T00:08:50;99010.81;;;13.95;55.71
9893;BME280;4985;49.092;8.542;2022-12-31T00:11:17;99015.09;;;13.96;55.71
9893;BME280;4985;49.092;8.542;2022-12-31T00:13:44;99015.09;;;13.96;55.71
9893;BME280;4985;49.092;8.542;2022-12-31T00:16:13;99017.72;;;13.96;55.71
9893;BME280;4985;49.092;8.542;2022-12-31T00:18:42;99020.38;;;13.96;55.71
9893;BME280;4985;49.092;8.542;2022-12-31T00:21:10;99033.41;;;13.98;55.69
9893;BME280;4985;49.092;8.542;2022-12-31T00:23:37;99026.69;;;13.95;55.70
9893;BME280;4985;49.092;8.542;2022-12-31T00:26:05;99023.66;;;13.98;55.67
9893;BME280;4985;49.092;8.542;2022-12-31T00:28:32;99026.28;;;13.98;55.68
9893;BME280;4985;49.092;8.542;2022-12-31T00:31:05;99030.78;;;13.98;55.71
9893;BME280;4985;49.092;8.542;2022-12-31T00:33:32;99027.31;;;13.97;55.74
9893;BME280;4985;49.092;8.542;2022-12-31T00:36:11;99037.88;;;13.97;55.74
9893;BME280;4985;49.092;8.542;2022-12-31T00:38:40;99037.06;;;13.97;55.77
9893;BME280;4985;49.092;8.542;2022-12-31T00:41:06;99039.72;;;13.97;55.77
9893;BME280;4985;49.092;8.542;2022-12-31T00:43:33;99037.06;;;13.97;55.79
9893;BME280;4985;49.092;8.542;2022-12-31T00:46:00;99039.72;;;13.97;55.79
9893;BME280;4985;49.092;8.542;2022-12-31T00:48:27;99048.47;;;13.97;55.81
9893;BME280;4985;49.092;8.542;2022-12-31T00:50:55;99061.72;;;13.97;55.80
9893;BME280;4985;49.092;8.542;2022-12-31T00:53:23;99067.00;;;13.97;55.81
9893;BME280;4985;49.092;8.542;2022-12-31T00:55:50;99071.28;;;13.98;55.78
9893;BME280;4985;49.092;8.542;2022-12-31T00:58:17;99062.53;;;13.98;55.79
9893;BME280;4985;49.092;8.542;2022-12-31T01:00:44;99074.94;;;13.97;55.79
9893;BME280;4985;49.092;8.542;2022-12-31T01:03:10;99072.91;;;13.99;55.79
9893;BME280;4985;49.092;8.542;2022-12-31T01:05:37;99080.84;;;13.99;55.79
9893;BME280;4985;49.092;8.542;2022-12-31T01:08:04;99073.94;;;13.98;55.79
9893;BME280;4985;49.092;8.542;2022-12-31T01:10:32;99086.97;;;14.00;55.78
9893;BME280;4985;49.092;8.542;2022-12-31T01:13:16;99079.03;;;14.00;55.78
9893;BME280;4985;49.092;8.542;2022-12-31T01:15:43;99091.44;;;13.99;55.80
9893;BME280;4985;49.092;8.542;2022-12-31T01:18:09;99094.09;;;13.99;55.81
9893;BME280;4985;49.092;8.542;2022-12-31T01:20:37;99109.97;;;13.99;55.81
9893;BME280;4985;49.092;8.542;2022-12-31T01:23:04;99135.41;;;14.01;55.83
9893;BME280;4985;49.092;8.542;2022-12-31T01:25:35;99121.56;;;13.98;55.83
9893;BME280;4985;49.092;8.542;2022-12-31T01:28:02;99129.50;;;13.98;55.85
9893;BME280;4985;49.092;8.542;2022-12-31T01:30:29;99125.84;;;13.99;55.84
9893;BME280;4985;49.092;8.542;2022-12-31T01:32:56;99116.91;;;14.01;55.85
9893;BME280;4985;49.092;8.542;2022-12-31T01:35:22;99112.41;;;14.01;55.84
9893;BME280;4985;49.092;8.542;2022-12-31T01:37:49;99117.72;;;14.01;55.83
9893;BME280;4985;49.092;8.542;2022-12-31T01:40:16;99117.72;;;14.01;55.83
9893;BME280;4985;49.092;8.542;2022-12-31T01:42:44;99113.25;;;14.02;55.83
9893;BME280;4985;49.092;8.542;2022-12-31T01:45:12;99126.47;;;14.02;55.83
9893;BME280;4985;49.092;8.542;2022-12-31T01:47:43;99122.81;;;14.03;55.84
9893;BME280;4985;49.092;8.542;2022-12-31T01:50:14;99134.78;;;13.98;55.85
9893;BME280;4985;49.092;8.542;2022-12-31T01:52:44;99123.81;;;14.02;55.86
9893;BME280;4985;49.092;8.542;2022-12-31T01:55:15;99136.03;;;14.03;55.84
9893;BME280;4985;49.092;8.542;2022-12-31T01:57:46;99138.69;;;14.03;55.84
9893;BME280;4985;49.092;8.542;2022-12-31T02:00:15;99117.91;;;13.99;55.81
9893;BME280;4985;49.092;8.542;2022-12-31T02:02:42;99133.41;;;14.03;55.83
9893;BME280;4985;49.092;8.542;2022-12-31T02:05:13;99127.09;;;14.04;55.81
9893;BME280;4985;49.092;8.542;2022-12-31T02:07:43;99122.63;;;14.04;55.80
9893;BME280;4985;49.092;8.542;2022-12-31T02:10:10;99134.06;;;14.05;55.79
9893;BME280;4985;49.092;8.542;2022-12-31T02:12:37;99122.47;;;14.06;55.78
9893;BME280;4985;49.092;8.542;2022-12-31T02:15:06;99121.62;;;14.05;55.77
9893;BME280;4985;49.092;8.542;2022-12-31T02:17:36;99138.16;;;14.07;55.75
9893;BME280;4985;49.092;8.542;2022-12-31T02:20:27;99144.25;;;14.08;55.76
9893;BME280;4985;49.092;8.542;2022-12-31T02:26:16;99138.97;;;14.08;55.76
9893;BME280;4985;49.092;8.542;2022-12-31T02:29:30;99148.72;;;14.07;55.78
9893;BME280;4985;49.092;8.542;2022-12-31T02:32:08;99156.69;;;14.07;55.79
9893;BME280;4985;49.092;8.542;2022-12-31T02:34:43;99141.59;;;14.08;55.78
9893;BME280;4985;49.092;8.542;2022-12-31T02:37:12;99144.25;;;14.08;55.78
9893;BME280;4985;49.092;8.542;2022-12-31T02:39:41;99137.31;;;14.07;55.78
9893;BME280;4985;49.092;8.542;2022-12-31T02:42:08;99141.59;;;14.08;55.79
9893;BME280;4985;49.092;8.542;2022-12-31T02:44:37;99146.09;;;14.07;55.80
9893;BME280;4985;49.092;8.542;2022-12-31T02:47:19;99147.91;;;14.07;55.80
9893;BME280;4985;49.092;8.542;2022-12-31T02:50:00;99148.53;;;14.09;55.81
9893;BME280;4985;49.092;8.542;2022-12-31T02:52:39;99145.91;;;14.09;55.79
9893;BME280;4985;49.092;8.542;2022-12-31T02:55:15;99153.84;;;14.09;55.78
9893;BME280;4985;49.092;8.542;2022-12-31T02:57:49;99152.81;;;14.10;55.78
9893;BME280;4985;49.092;8.542;2022-12-31T03:00:19;99146.53;;;14.11;55.77
9893;BME280;4985;49.092;8.542;2022-12-31T03:03:05;99141.22;;;14.11;55.76
9893;BME280;4985;49.092;8.542;2022-12-31T03:05:36;99140.22;;;14.12;55.74
9893;BME280;4985;49.092;8.542;2022-12-31T03:08:04;99137.56;;;14.12;55.75
9893;BME280;4985;49.092;8.542;2022-12-31T03:10:31;99145.50;;;14.12;55.74
9893;BME280;4985;49.092;8.542;2022-12-31T03:12:59;99148.16;;;14.12;55.74
9893;BME280;4985;49.092;8.542;2022-12-31T03:15:26;99146.31;;;14.12;55.73
9893;BME280;4985;49.092;8.542;2022-12-31T03:17:56;99146.31;;;14.12;55.72
9893;BME280;4985;49.092;8.542;2022-12-31T03:20:28;99139.59;;;14.10;55.71
9893;BME280;4985;49.092;8.542;2022-12-31T03:23:15;99156.72;;;14.14;55.75
9893;BME280;4985;49.092;8.542;2022-12-31T03:25:43;99148.78;;;14.14;55.74
9893;BME280;4985;49.092;8.542;2022-12-31T03:28:12;99147.16;;;14.13;55.75
9893;BME280;4985;49.092;8.542;2022-12-31T03:30:40;99155.91;;;14.13;55.75
9893;BME280;4985;49.092;8.542;2022-12-31T03:33:07;99163.84;;;14.13;55.75
9893;BME280;4985;49.092;8.542;2022-12-31T03:35:36;99147.78;;;14.15;55.75
9893;BME280;4985;49.092;8.542;2022-12-31T03:38:04;99162.66;;;14.16;55.70
9893;BME280;4985;49.092;8.542;2022-12-31T03:40:32;99142.47;;;14.15;55.69
9893;BME280;4985;49.092;8.542;2022-12-31T03:43:02;99169.59;;;14.17;55.71
9893;BME280;4985;49.092;8.542;2022-12-31T03:45:28;99156.38;;;14.17;55.71
9893;BME280;4985;49.092;8.542;2022-12-31T03:47:55;99159.00;;;14.17;55.70
9893;BME280;4985;49.092;8.542;2022-12-31T03:50:21;99153.72;;;14.17;55.71
9893;BME280;4985;49.092;8.542;2022-12-31T03:52:49;99153.72;;;14.17;55.71
9893;BME280;4985;49.092;8.542;2022-12-31T03:55:16;99167.78;;;14.17;55.71
9893;BME280;4985;49.092;8.542;2022-12-31T03:57:42;99169.59;;;14.17;55.69
9893;BME280;4985;49.092;8.542;2022-12-31T04:00:12;99152.72;;;14.18;55.68
9893;BME280;4985;49.092;8.542;2022-12-31T04:02:39;99145.59;;;14.18;55.68
9893;BME280;4985;49.092;8.542;2022-12-31T04:05:06;99145.59;;;14.18;55.67
9893;BME280;4985;49.092;8.542;2022-12-31T04:07:33;99143.75;;;14.19;55.67
9893;BME280;4985;49.092;8.542;2022-12-31T04:10:01;99155.97;;;14.20;55.66
9893;BME280;4985;49.092;8.542;2022-12-31T04:12:28;99138.66;;;14.17;55.63
9893;BME280;4985;49.092;8.542;2022-12-31T04:14:54;99143.56;;;14.20;55.67
9893;BME280;4985;49.092;8.542;2022-12-31T04:17:21;99140.09;;;14.20;55.66
9893;BME280;4985;49.092;8.542;2022-12-31T04:19:47;99144.38;;;14.21;55.66
9893;BME280;4985;49.092;8.542;2022-12-31T04:22:14;99144.38;;;14.21;55.66
9893;BME280;4985;49.092;8.542;2022-12-31T04:24:41;99161.09;;;14.21;55.67
9893;BME280;4985;49.092;8.542;2022-12-31T04:27:10;99158.44;;;14.21;55.67
9893;BME280;4985;49.092;8.542;2022-12-31T04:29:36;99141.09;;;14.19;55.67
9893;BME280;4985;49.092;8.542;2022-12-31T04:32:03;99150.50;;;14.21;55.68
9893;BME280;4985;49.092;8.542;2022-12-31T04:34:31;99148.03;;;14.20;55.67
9893;BME280;4985;49.092;8.542;2022-12-31T04:36:58;99153.94;;;14.22;55.66
9893;BME280;4985;49.092;8.542;2022-12-31T04:39:25;99159.25;;;14.22;55.67
9893;BME280;4985;49.092;8.542;2022-12-31T04:41:52;99158.25;;;14.23;55.66
9893;BME280;4985;49.092;8.542;2022-12-31T04:44:20;99158.25;;;14.23;55.64
9893;BME280;4985;49.092;8.542;2022-12-31T04:46:46;99172.09;;;14.25;55.64
9893;BME280;4985;49.092;8.542;2022-12-31T04:49:13;99175.75;;;14.24;55.62
9893;BME280;4985;49.092;8.542;2022-12-31T04:51:39;99188.81;;;14.25;55.63
9893;BME280;4985;49.092;8.542;2022-12-31T04:54:06;99179.22;;;14.24;55.63
9893;BME280;4985;49.092;8.542;2022-12-31T04:56:32;99176.38;;;14.26;55.61
9893;BME280;4985;49.092;8.542;2022-12-31T04:59:00;99186.00;;;14.27;55.60
9893;BME280;4985;49.092;8.542;2022-12-31T05:01:28;99191.28;;;14.27;55.61
9893;BME280;4985;49.092;8.542;2022-12-31T05:03:55;99191.28;;;14.27;55.60
9893;BME280;4985;49.092;8.542;2022-12-31T05:06:22;99191.28;;;14.27;55.61
9893;BME280;4985;49.092;8.542;2022-12-31T05:08:49;99192.94;;;14.28;55.58
9893;BME280;4985;49.092;8.542;2022-12-31T05:11:16;99191.91;;;14.29;55.59
9893;BME280;4985;49.092;8.542;2022-12-31T05:13:43;99188.44;;;14.28;55.60
9893;BME280;4985;49.092;8.542;2022-12-31T05:16:09;99183.97;;;14.29;55.60
9893;BME280;4985;49.092;8.542;2022-12-31T05:18:37;99194.56;;;14.29;55.61
9893;BME280;4985;49.092;8.542;2022-12-31T05:21:05;99182.34;;;14.28;55.61
9893;BME280;4985;49.092;8.542;2022-12-31T05:23:32;99197.22;;;14.29;55.61
9893;BME280;4985;49.092;8.542;2022-12-31T05:25:59;99191.91;;;14.29;55.62
9893;BME280;4985;49.092;8.542;2022-12-31T05:28:26;99199.84;;;14.29;55.63
9893;BME280;4985;49.092;8.542;2022-12-31T05:30:53;99194.56;;;14.29;55.64
9893;BME280;4985;49.092;8.542;2022-12-31T05:33:20;99206.78;;;14.30;55.66
9893;BME280;4985;49.092;8.542;2022-12-31T05:35:48;99207.81;;;14.29;55.67
9893;BME280;4985;49.092;8.542;2022-12-31T05:38:15;99212.91;;;14.31;55.66
9893;BME280;4985;49.092;8.542;2022-12-31T05:40:41;99211.28;;;14.30;55.68
9893;BME280;4985;49.092;8.542;2022-12-31T05:43:08;99217.38;;;14.30;55.66
9893;BME280;4985;49.092;8.542;2022-12-31T05:45:34;99214.75;;;14.30;55.66
9893;BME280;4985;49.092;8.542;2022-12-31T05:48:01;99214.53;;;14.32;55.66
9893;BME280;4985;49.092;8.542;2022-12-31T05:50:27;99222.28;;;14.33;55.63
9893;BME280;4985;49.092;8.542;2022-12-31T05:52:55;99225.94;;;14.32;55.63
9893;BME280;4985;49.092;8.542;2022-12-31T05:55:22;99228.59;;;14.32;55.63
9893;BME280;4985;49.092;8.542;2022-12-31T05:57:49;99231.06;;;14.34;55.64
9893;BME280;4985;49.092;8.542;2022-12-31T06:00:16;99224.13;;;14.33;55.64
9893;BME280;4985;49.092;8.542;2022-12-31T06:02:43;99216.19;;;14.33;55.61
9893;BME280;4985;49.092;8.542;2022-12-31T06:05:09;99234.53;;;14.34;55.65
9893;BME280;4985;49.092;8.542;2022-12-31T06:07:36;99228.41;;;14.34;55.64
9893;BME280;4985;49.092;8.542;2022-12-31T06:10:05;99218.63;;;14.34;55.65
9893;BME280;4985;49.092;8.542;2022-12-31T06:12:32;99214.34;;;14.33;55.64
9893;BME280;4985;49.092;8.542;2022-12-31T06:14:58;99231.87;;;14.34;55.65
9893;BME280;4985;49.092;8.542;2022-12-31T06:17:25;99235.53;;;14.33;55.64
9893;BME280;4985;49.092;8.542;2022-12-31T06:19:51;99249.41;;;14.35;55.63
9893;BME280;4985;49.092;8.542;2022-12-31T06:22:18;99229.03;;;14.36;55.63
9893;BME280;4985;49.092;8.542;2022-12-31T06:24:44;99236.16;;;14.35;55.64
9893;BME280;4985;49.092;8.542;2022-12-31T06:27:12;99245.75;;;14.36;55.66
9893;BME280;4985;49.092;8.542;2022-12-31T06:29:39;99242.09;;;14.37;55.64
9893;BME280;4985;49.092;8.542;2022-12-31T06:32:06;99260.63;;;14.37;55.66
9893;BME280;4985;49.092;8.542;2022-12-31T06:34:32;99242.91;;;14.38;55.63
9893;BME280;4985;49.092;8.542;2022-12-31T06:36:59;99244.56;;;14.39;55.61
9893;BME280;4985;49.092;8.542;2022-12-31T06:39:25;99253.31;;;14.39;55.60
9893;BME280;4985;49.092;8.542;2022-12-31T06:41:52;99242.75;;;14.39;55.60
9893;BME280;4985;49.092;8.542;2022-12-31T06:44:20;99256.97;;;14.38;55.61
9893;BME280;4985;49.092;8.542;2022-12-31T06:46:47;99258.62;;;14.39;55.59
9893;BME280;4985;49.092;8.542;2022-12-31T06:49:14;99270.84;;;14.40;55.63
9893;BME280;4985;49.092;8.542;2022-12-31T06:51:41;99268.22;;;14.40;55.63
9893;BME280;4985;49.092;8.542;2022-12-31T06:54:10;99264.75;;;14.40;55.61
9893;BME280;4985;49.092;8.542;2022-12-31T06:56:38;99263.94;;;14.39;55.61
9893;BME280;4985;49.092;8.542;2022-12-31T06:59:05;99266.38;;;14.41;55.59
9893;BME280;4985;49.092;8.542;2022-12-31T07:01:44;99251.31;;;14.41;55.58
9893;BME280;4985;49.092;8.542;2022-12-31T07:04:37;99249.47;;;14.42;55.57
9893;BME280;4985;49.092;8.542;2022-12-31T07:07:16;99251.31;;;14.41;55.60
9893;BME280;4985;49.092;8.542;2022-12-31T07:09:52;99245.81;;;14.43;55.59
9893;BME280;4985;49.092;8.542;2022-12-31T07:12:41;99253.75;;;14.43;55.58
9893;BME280;4985;49.092;8.542;2022-12-31T07:15:15;99259.88;;;14.43;55.59
9893;BME280;4985;49.092;8.542;2022-12-31T07:17:51;99251.31;;;14.41;55.61
9893;BME280;4985;49.092;8.542;2022-12-31T07:20:23;99261.72;;;14.43;55.61
9893;BME280;4985;49.092;8.542;2022-12-31T07:22:50;99269.66;;;14.43;55.62
9893;BME280;4985;49.092;8.542;2022-12-31T07:25:17;99259.06;;;14.43;55.63
9893;BME280;4985;49.092;8.542;2022-12-31T07:27:52;99260.69;;;14.44;55.65
9893;BME280;4985;49.092;8.542;2022-12-31T07:30:26;99274.78;;;14.44;55.61
9893;BME280;4985;49.092;8.542;2022-12-31T07:33:10;99270.47;;;14.43;55.61
9893;BME280;4985;49.092;8.542;2022-12-31T07:35:47;99277.44;;;14.44;55.63
9893;BME280;4985;49.092;8.542;2022-12-31T07:38:27;99276.44;;;14.45;55.62
9893;BME280;4985;49.092;8.542;2022-12-31T07:41:04;99283.56;;;14.45;55.61
9893;BME280;4985;49.092;8.542;2022-12-31T07:43:35;99272.97;;;14.45;55.63
9893;BME280;4985;49.092;8.542;2022-12-31T07:46:10;99288.84;;;14.45;55.61
9893;BME280;4985;49.092;8.542;2022-12-31T07:48:40;99281.72;;;14.45;55.64
9893;BME280;4985;49.092;8.542;2022-12-31T07:51:08;99291.31;;;14.46;55.64
9893;BME280;4985;49.092;8.542;2022-12-31T07:53:35;99308.84;;;14.47;55.64
9893;BME280;4985;49.092;8.542;2022-12-31T07:56:05;99301.72;;;14.48;55.68
9893;BME280;4985;49.092;8.542;2022-12-31T07:58:46;99303.53;;;14.47;55.66
9893;BME280;4985;49.092;8.542;2022-12-31T08:01:21;99299.87;;;14.48;55.69
9893;BME280;4985;49.092;8.542;2022-12-31T08:04:01;99304.16;;;14.49;55.67
9893;BME280;4985;49.092;8.542;2022-12-31T08:06:38;99294.59;;;14.48;55.68
9893;BME280;4985;49.092;8.542;2022-12-31T08:09:13;99306.38;;;14.46;55.68
9893;BME280;4985;49.092;8.542;2022-12-31T08:11:47;99312.12;;;14.49;55.68
9893;BME280;4985;49.092;8.542;2022-12-31T08:14:17;99311.69;;;14.46;55.73
9893;BME280;4985;49.092;8.542;2022-12-31T08:16:45;99319.09;;;14.50;55.80
9893;BME280;4985;49.092;8.542;2022-12-31T08:19:21;99313.78;;;14.50;55.78
9893;BME280;4985;49.092;8.542;2022-12-31T08:21:57;99324.38;;;14.50;55.78
9893;BME280;4985;49.092;8.542;2022-12-31T08:24:31;99319.91;;;14.51;55.82
9893;BME280;4985;49.092;8.542;2022-12-31T08:27:05;99332.13;;;14.52;55.82
9893;BME280;4985;49.092;8.542;2022-12-31T08:29:39;99332.97;;;14.52;55.85
9893;BME280;4985;49.092;8.542;2022-12-31T08:32:12;99327.66;;;14.52;55.86
9893;BME280;4985;49.092;8.542;2022-12-31T08:34:47;99333.78;;;14.53;55.84
9893;BME280;4985;49.092;8.542;2022-12-31T08:37:22;99335.41;;;14.54;55.88
9893;BME280;4985;49.092;8.542;2022-12-31T08:40:02;99330.13;;;14.54;55.88
9893;BME280;4985;49.092;8.542;2022-12-31T08:42:38;99349.28;;;14.56;55.90
9893;BME280;4985;49.092;8.542;2022-12-31T08:45:12;99351.13;;;14.55;55.89
9893;BME280;4985;49.092;8.542;2022-12-31T08:47:44;99348.03;;;14.52;55.88
9893;BME280;4985;49.092;8.542;2022-12-31T08:50:17;99343.16;;;14.55;55.86
9893;BME280;4985;49.092;8.542;2022-12-31T08:52:45;99349.28;;;14.56;55.82
9893;BME280;4985;49.092;8.542;2022-12-31T08:55:15;99348.47;;;14.55;55.78
9893;BME280;4985;49.092;8.542;2022-12-31T08:57:47;99347.44;;;14.56;55.81
9893;BME280;4985;49.092;8.542;2022-12-31T09:00:18;99357.03;;;14.57;55.81
9893;BME280;4985;49.092;8.542;2022-12-31T09:02:58;99356.84;;;14.59;55.79
9893;BME280;4985;49.092;8.542;2022-12-31T09:05:34;99354.19;;;14.59;55.78
9893;BME280;4985;49.092;8.542;2022-12-31T09:08:10;99362.16;;;14.59;55.79
9893;BME280;4985;49.092;8.542;2022-12-31T09:10:43;99350.53;;;14.60;55.81
9893;BME280;4985;49.092;8.542;2022-12-31T09:13:20;99356.66;;;14.61;55.81
9893;BME280;4985;49.092;8.542;2022-12-31T09:15:54;99362.81;;;14.61;55.80
9893;BME280;4985;49.092;8.542;2022-12-31T09:18:24;99360.16;;;14.61;55.80
9893;BME280;4985;49.092;8.542;2022-12-31T09:20:52;99357.31;;;14.63;55.79
9893;BME280;4985;49.092;8.542;2022-12-31T09:23:19;99365.25;;;14.63;55.76
9893;BME280;4985;49.092;8.542;2022-12-31T09:25:56;99364.44;;;14.62;55.77
9893;BME280;4985;49.092;8.542;2022-12-31T09:28:35;99353.66;;;14.64;55.78
9893;BME280;4985;49.092;8.542;2022-12-31T09:31:08;99361.59;;;14.64;55.75
9893;BME280;4985;49.092;8.542;2022-12-31T09:33:41;99362.22;;;14.66;55.73
9893;BME280;4985;49.092;8.542;2022-12-31T09:36:14;99360.41;;;14.66;55.74
9893;BME280;4985;49.092;8.542;2022-12-31T09:38:48;99371.81;;;14.67;55.74
9893;BME280;4985;49.092;8.542;2022-12-31T09:41:31;99378.13;;;14.66;55.73
9893;BME280;4985;49.092;8.542;2022-12-31T09:44:44;99378.75;;;14.68;55.73
9893;BME280;4985;49.092;8.542;2022-12-31T09:47:50;99380.41;;;14.69;55.70
9893;BME280;4985;49.092;8.542;2022-12-31T09:50:40;99389.16;;;14.69;55.71
9893;BME280;4985;49.092;8.542;2022-12-31T09:56:08;99393.44;;;14.70;55.69
9893;BME280;4985;49.092;8.542;2022-12-31T09:58:41;99383.69;;;14.71;55.68
9893;BME280;4985;49.092;8.542;2022-12-31T10:01:22;99395.09;;;14.71;55.71
9893;BME280;4985;49.092;8.542;2022-12-31T10:06:47;99386.16;;;14.72;55.69
9893;BME280;4985;49.092;8.542;2022-12-31T10:09:30;99379.03;;;14.73;55.70
9893;BME280;4985;49.092;8.542;2022-12-31T10:12:17;99377.56;;;14.70;55.66
9893;BME280;4985;49.092;8.542;2022-12-31T10:15:11;99383.31;;;14.74;55.69
9893;BME280;4985;49.092;8.542;2022-12-31T10:17:57;99363.75;;;14.75;55.67
9893;BME280;4985;49.092;8.542;2022-12-31T10:20:46;99365.59;;;14.74;55.71
9893;BME280;4985;49.092;8.542;2022-12-31T10:23:49;99367.44;;;14.74;55.72
9893;BME280;4985;49.092;8.542;2022-12-31T10:26:37;99361.13;;;14.75;55.72
9893;BME280;4985;49.092;8.542;2022-12-31T10:29:25;99365.41;;;14.76;55.71
9893;BME280;4985;49.092;8.542;2022-12-31T10:32:04;99366.22;;;14.76;55.70
9893;BME280;4985;49.092;8.542;2022-12-31T10:34:46;99349.50;;;14.76;55.73
9893;BME280;4985;49.092;8.542;2022-12-31T10:37:18;99355.63;;;14.76;55.73
9893;BME280;4985;49.092;8.542;2022-12-31T10:39:55;99361.75;;;14.77;55.72
9893;BME280;4985;49.092;8.542;2022-12-31T10:42:45;99363.19;;;14.79;55.70
9893;BME280;4985;49.092;8.542;2022-12-31T10:55:16;99382.16;;;14.83;55.64
9893;BME280;4985;49.092;8.542;2022-12-31T10:58:08;99375.87;;;14.84;55.65
9893;BME280;4985;49.092;8.542;2022-12-31T11:00:45;99370.59;;;14.84;55.63
9893;BME280;4985;49.092;8.542;2022-12-31T11:03:49;99367.94;;;14.84;55.61
9893;BME280;4985;49.092;8.542;2022-12-31T11:10:28;99362.63;;;14.84;55.65
9893;BME280;4985;49.092;8.542;2022-12-31T11:16:11;99345.72;;;14.85;55.67
9893;BME280;4985;49.092;8.542;2022-12-31T11:18:51;99360.63;;;14.86;55.69
9893;BME280;4985;49.092;8.542;2022-12-31T11:21:33;99359.59;;;14.87;55.68
9893;BME280;4985;49.092;8.542;2022-12-31T11:24:08;99353.28;;;14.88;55.71
9893;BME280;4985;49.092;8.542;2022-12-31T11:26:46;99348.00;;;14.88;55.68
9893;BME280;4985;49.092;8.542;2022-12-31T11:29:30;99339.03;;;14.89;55.65
9893;BME280;4985;49.092;8.542;2022-12-31T11:32:15;99339.03;;;14.89;55.63
9893;BME280;4985;49.092;8.542;2022-12-31T11:35:07;99347.59;;;14.91;55.58
9893;BME280;4985;49.092;8.542;2022-12-31T11:37:43;99333.53;;;14.91;55.59
9893;BME280;4985;49.092;8.542;2022-12-31T11:40:42;99351.06;;;14.92;55.59
9893;BME280;4985;49.092;8.542;2022-12-31T11:43:24;99343.13;;;14.92;55.61
9893;BME280;4985;49.092;8.542;2022-12-31T11:49:23;99334.97;;;14.93;55.59
9893;BME280;4985;49.092;8.542;2022-12-31T11:52:17;99336.63;;;14.94;55.57
9893;BME280;4985;49.092;8.542;2022-12-31T11:57:45;99327.69;;;14.95;55.59
9893;BME280;4985;49.092;8.542;2022-12-31T12:00:16;99337.28;;;14.96;55.59
9893;BME280;4985;49.092;8.542;2022-12-31T12:02:46;99341.56;;;14.97;55.60
9893;BME280;4985;49.092;8.542;2022-12-31T12:05:16;99337.06;;;14.98;55.60
9893;BME280;4985;49.092;8.542;2022-12-31T12:07:44;99324.44;;;15.00;55.58
9893;BME280;4985;49.092;8.542;2022-12-31T12:10:20;99323.63;;;14.99;55.56
9893;BME280;4985;49.092;8.542;2022-12-31T12:12:48;99324.06;;;15.03;55.55
9893;BME280;4985;49.092;8.542;2022-12-31T12:15:20;99315.28;;;15.02;55.52
9893;BME280;4985;49.092;8.542;2022-12-31T12:17:51;99324.88;;;15.03;55.51
9893;BME280;4985;49.092;8.542;2022-12-31T12:20:25;99321.22;;;15.04;55.50
9893;BME280;4985;49.092;8.542;2022-12-31T12:22:55;99316.72;;;15.05;55.49
9893;BME280;4985;49.092;8.542;2022-12-31T12:25:24;99315.72;;;15.06;55.48
9893;BME280;4985;49.092;8.542;2022-12-31T12:27:51;99310.59;;;15.04;55.47
9893;BME280;4985;49.092;8.542;2022-12-31T12:30:20;99313.06;;;15.06;55.48
9893;BME280;4985;49.092;8.542;2022-12-31T12:32:52;99320.84;;;15.07;55.46
9893;BME280;4985;49.092;8.542;2022-12-31T12:35:24;99321.66;;;15.08;55.48
9893;BME280;4985;49.092;8.542;2022-12-31T12:37:58;99317.19;;;15.08;55.48
9893;BME280;4985;49.092;8.542;2022-12-31T12:40:25;99317.19;;;15.08;55.50
9893;BME280;4985;49.092;8.542;2022-12-31T12:42:52;99310.88;;;15.09;55.49
9893;BME280;4985;49.092;8.542;2022-12-31T12:45:21;99314.34;;;15.10;55.47
9893;BME280;4985;49.092;8.542;2022-12-31T12:47:53;99315.16;;;15.10;55.48
9893;BME280;4985;49.092;8.542;2022-12-31T12:50:24;99312.50;;;15.10;55.50
9893;BME280;4985;49.092;8.542;2022-12-31T12:53:15;99316.78;;;15.11;55.48
9893;BME280;4985;49.092;8.542;2022-12-31T12:55:51;99306.19;;;15.11;55.49
9893;BME280;4985;49.092;8.542;2022-12-31T12:58:33;99306.19;;;15.11;55.49
9893;BME280;4985;49.092;8.542;2022-12-31T13:01:11;99312.31;;;15.12;55.49
9893;BME280;4985;49.092;8.542;2022-12-31T13:04:13;99304.34;;;15.12;55.49
9893;BME280;4985;49.092;8.542;2022-12-31T13:06:57;99311.09;;;15.14;55.49
9893;BME280;4985;49.092;8.542;2022-12-31T13:09:36;99309.47;;;15.13;55.50
9893;BME280;4985;49.092;8.542;2022-12-31T13:12:14;99302.94;;;15.16;55.50
9893;BME280;4985;49.092;8.542;2022-12-31T13:14:49;99314.37;;;15.17;55.48
9893;BME280;4985;49.092;8.542;2022-12-31T13:17:29;99303.78;;;15.17;55.49
9893;BME280;4985;49.092;8.542;2022-12-31T13:20:02;99282.56;;;15.17;55.48
9893;BME280;4985;49.092;8.542;2022-12-31T13:22:39;99287.84;;;15.17;55.48
9893;BME280;4985;49.092;8.542;2022-12-31T13:25:20;99292.19;;;15.18;55.48
9893;BME280;4985;49.092;8.542;2022-12-31T13:27:53;99295.66;;;15.18;55.48
9893;BME280;4985;49.092;8.542;2022-12-31T13:30:24;99291.16;;;15.19;55.47
9893;BME280;4985;49.092;8.542;2022-12-31T13:32:58;99277.91;;;15.19;55.48
9893;BME280;4985;49.092;8.542;2022-12-31T13:35:28;99289.34;;;15.19;55.47
9893;BME280;4985;49.092;8.542;2022-12-31T13:38:01;99278.53;;;15.21;55.45
9893;BME280;4985;49.092;8.542;2022-12-31T13:40:37;99281.19;;;15.21;55.43
9893;BME280;4985;49.092;8.542;2022-12-31T13:43:15;99276.69;;;15.21;55.45
9893;BME280;4985;49.092;8.542;2022-12-31T13:45:47;99266.91;;;15.22;55.43
9893;BME280;4985;49.092;8.542;2022-12-31T13:48:23;99269.34;;;15.23;55.44
9893;BME280;4985;49.092;8.542;2022-12-31T13:50:59;99267.53;;;15.24;55.41
9893;BME280;4985;49.092;8.542;2022-12-31T13:53:34;99273.66;;;15.24;55.42
9893;BME280;4985;49.092;8.542;2022-12-31T13:56:04;99269.16;;;15.25;55.41
9893;BME280;4985;49.092;8.542;2022-12-31T13:58:38;99272.62;;;15.25;55.41
9893;BME280;4985;49.092;8.542;2022-12-31T14:01:12;99276.09;;;15.26;55.42
9893;BME280;4985;49.092;8.542;2022-12-31T14:03:46;99266.31;;;15.26;55.40
9893;BME280;4985;49.092;8.542;2022-12-31T14:06:24;99277.75;;;15.27;55.41
9893;BME280;4985;49.092;8.542;2022-12-31T14:08:55;99280.38;;;15.27;55.40
9893;BME280;4985;49.092;8.542;2022-12-31T14:11:39;99281.22;;;15.27;55.39
9893;BME280;4985;49.092;8.542;2022-12-31T14:14:16;99279.38;;;15.28;55.41
9893;BME280;4985;49.092;8.542;2022-12-31T14:16:50;99279.22;;;15.29;55.41
9893;BME280;4985;49.092;8.542;2022-12-31T14:19:28;99281.41;;;15.26;55.38
9893;BME280;4985;49.092;8.542;2022-12-31T14:22:04;99288.81;;;15.30;55.40
9893;BME280;4985;49.092;8.542;2022-12-31T14:24:42;99281.66;;;15.31;55.40